sensor_id;sensor_type;location;lat;lon;timestamp;P1;durP1;ratioP1;P2;durP2;ratioP2
59571;SDS011;70118;45.638;11.714;2023-07-20T00:00:49;8.45;;;4.13;;
59571;SDS011;70118;45.638;11.714;2023-07-20T00:03:18;8.30;;;4.20;;
59571;SDS011;70118;45.638;11.714;2023-07-20T00:05:48;7.00;;;3.90;;
59571;SDS011;70118;45.638;11.714;2023-07-20T00:08:15;8.10;;;4.28;;
59571;SDS011;70118;45.638;11.714;2023-07-20T00:10:42;7.68;;;4.40;;
59571;SDS011;70118;45.638;11.714;2023-07-20T00:13:08;8.88;;;3.85;;
59571;SDS011;70118;45.638;11.714;2023-07-20T00:15:35;8.10;;;4.23;;
59571;SDS011;70118;45.638;11.714;2023-07-20T00:18:03;7.43;;;3.80;;
59571;SDS011;70118;45.638;11.714;2023-07-20T00:20:29;7.25;;;4.05;;
59571;SDS011;70118;45.638;11.714;2023-07-20T00:22:55;8.32;;;4.20;;
59571;SDS011;70118;45.638;11.714;2023-07-20T00:25:23;7.32;;;4.03;;
59571;SDS011;70118;45.638;11.714;2023-07-20T00:27:49;7.70;;;4.00;;
59571;SDS011;70118;45.638;11.714;2023-07-20T00:30:15;7.13;;;3.78;;
59571;SDS011;70118;45.638;11.714;2023-07-20T00:32:44;7.35;;;4.20;;
59571;SDS011;70118;45.638;11.714;2023-07-20T00:35:10;8.00;;;4.40;;
59571;SDS011;70118;45.638;11.714;2023-07-20T00:37:36;7.57;;;4.10;;
59571;SDS011;70118;45.638;11.714;2023-07-20T00:40:04;6.43;;;3.93;;
59571;SDS011;70118;45.638;11.714;2023-07-20T00:42:32;8.02;;;4.18;;
59571;SDS011;70118;45.638;11.714;2023-07-20T00:44:58;6.72;;;4.00;;
59571;SDS011;70118;45.638;11.714;2023-07-20T00:47:25;10.40;;;4.28;;
59571;SDS011;70118;45.638;11.714;2023-07-20T00:49:52;6.57;;;4.00;;
59571;SDS011;70118;45.638;11.714;2023-07-20T00:52:19;7.57;;;4.53;;
59571;SDS011;70118;45.638;11.714;2023-07-20T00:54:48;7.72;;;4.00;;
59571;SDS011;70118;45.638;11.714;2023-07-20T00:57:16;7.63;;;4.53;;
59571;SDS011;70118;45.638;11.714;2023-07-20T00:59:43;7.95;;;4.43;;
59571;SDS011;70118;45.638;11.714;2023-07-20T01:02:10;7.05;;;4.03;;
59571;SDS011;70118;45.638;11.714;2023-07-20T01:04:36;7.97;;;4.00;;
59571;SDS011;70118;45.638;11.714;2023-07-20T01:07:11;8.68;;;3.85;;
59571;SDS011;70118;45.638;11.714;2023-07-20T01:09:52;6.05;;;3.75;;
59571;SDS011;70118;45.638;11.714;2023-07-20T01:12:38;9.18;;;4.38;;
59571;SDS011;70118;45.638;11.714;2023-07-20T01:15:11;7.70;;;4.28;;
59571;SDS011;70118;45.638;11.714;2023-07-20T01:17:38;7.30;;;3.80;;
59571;SDS011;70118;45.638;11.714;2023-07-20T01:20:05;7.57;;;4.15;;
59571;SDS011;70118;45.638;11.714;2023-07-20T01:28:24;8.52;;;4.30;;
59571;SDS011;70118;45.638;11.714;2023-07-20T01:33:43;8.70;;;5.10;;
59571;SDS011;70118;45.638;11.714;2023-07-20T01:36:11;8.38;;;5.00;;
59571;SDS011;70118;45.638;11.714;2023-07-20T01:38:38;8.57;;;4.88;;
59571;SDS011;70118;45.638;11.714;2023-07-20T01:41:04;7.30;;;4.50;;
59571;SDS011;70118;45.638;11.714;2023-07-20T01:43:31;7.87;;;4.87;;
59571;SDS011;70118;45.638;11.714;2023-07-20T01:45:56;9.35;;;4.65;;
59571;SDS011;70118;45.638;11.714;2023-07-20T01:48:22;9.15;;;5.03;;
59571;SDS011;70118;45.638;11.714;2023-07-20T01:50:48;8.30;;;4.70;;
59571;SDS011;70118;45.638;11.714;2023-07-20T01:53:14;9.07;;;4.53;;
59571;SDS011;70118;45.638;11.714;2023-07-20T01:55:40;7.22;;;4.28;;
59571;SDS011;70118;45.638;11.714;2023-07-20T01:58:06;7.63;;;4.70;;
59571;SDS011;70118;45.638;11.714;2023-07-20T02:00:32;7.55;;;4.13;;
59571;SDS011;70118;45.638;11.714;2023-07-20T02:02:58;10.20;;;4.70;;
59571;SDS011;70118;45.638;11.714;2023-07-20T02:05:24;9.90;;;4.67;;
59571;SDS011;70118;45.638;11.714;2023-07-20T02:07:50;7.28;;;4.30;;
59571;SDS011;70118;45.638;11.714;2023-07-20T02:10:16;10.57;;;4.80;;
59571;SDS011;70118;45.638;11.714;2023-07-20T02:12:42;7.77;;;4.17;;
59571;SDS011;70118;45.638;11.714;2023-07-20T02:15:08;8.87;;;4.60;;
59571;SDS011;70118;45.638;11.714;2023-07-20T02:17:35;7.95;;;4.03;;
59571;SDS011;70118;45.638;11.714;2023-07-20T02:20:02;8.02;;;4.30;;
59571;SDS011;70118;45.638;11.714;2023-07-20T02:22:28;8.48;;;3.83;;
59571;SDS011;70118;45.638;11.714;2023-07-20T02:24:54;8.60;;;4.60;;
59571;SDS011;70118;45.638;11.714;2023-07-20T02:27:19;7.20;;;4.20;;
59571;SDS011;70118;45.638;11.714;2023-07-20T02:29:45;8.60;;;4.00;;
59571;SDS011;70118;45.638;11.714;2023-07-20T02:32:11;7.28;;;3.58;;
59571;SDS011;70118;45.638;11.714;2023-07-20T02:34:37;8.52;;;4.10;;
59571;SDS011;70118;45.638;11.714;2023-07-20T02:37:03;7.20;;;3.87;;
59571;SDS011;70118;45.638;11.714;2023-07-20T02:39:30;6.97;;;4.13;;
59571;SDS011;70118;45.638;11.714;2023-07-20T02:41:56;6.70;;;3.78;;
59571;SDS011;70118;45.638;11.714;2023-07-20T02:44:22;7.13;;;3.63;;
59571;SDS011;70118;45.638;11.714;2023-07-20T02:46:48;8.27;;;4.00;;
59571;SDS011;70118;45.638;11.714;2023-07-20T02:49:17;7.80;;;3.73;;
59571;SDS011;70118;45.638;11.714;2023-07-20T02:51:42;8.68;;;3.80;;
59571;SDS011;70118;45.638;11.714;2023-07-20T02:54:09;7.88;;;4.10;;
59571;SDS011;70118;45.638;11.714;2023-07-20T02:56:35;7.93;;;4.22;;
59571;SDS011;70118;45.638;11.714;2023-07-20T02:59:01;8.97;;;3.70;;
59571;SDS011;70118;45.638;11.714;2023-07-20T03:01:27;10.52;;;4.00;;
59571;SDS011;70118;45.638;11.714;2023-07-20T03:03:54;7.35;;;3.38;;
59571;SDS011;70118;45.638;11.714;2023-07-20T03:06:20;7.85;;;3.47;;
59571;SDS011;70118;45.638;11.714;2023-07-20T03:08:47;6.97;;;3.90;;
59571;SDS011;70118;45.638;11.714;2023-07-20T03:11:16;7.53;;;3.60;;
59571;SDS011;70118;45.638;11.714;2023-07-20T03:13:43;6.82;;;3.42;;
59571;SDS011;70118;45.638;11.714;2023-07-20T03:16:10;8.93;;;3.67;;
59571;SDS011;70118;45.638;11.714;2023-07-20T03:18:43;6.32;;;3.47;;
59571;SDS011;70118;45.638;11.714;2023-07-20T03:21:09;8.17;;;3.37;;
59571;SDS011;70118;45.638;11.714;2023-07-20T03:23:39;6.80;;;3.70;;
59571;SDS011;70118;45.638;11.714;2023-07-20T03:26:06;6.43;;;3.40;;
59571;SDS011;70118;45.638;11.714;2023-07-20T03:28:37;7.88;;;3.72;;
59571;SDS011;70118;45.638;11.714;2023-07-20T03:31:04;8.52;;;3.60;;
59571;SDS011;70118;45.638;11.714;2023-07-20T03:33:30;5.67;;;3.00;;
59571;SDS011;70118;45.638;11.714;2023-07-20T03:35:56;6.50;;;3.22;;
59571;SDS011;70118;45.638;11.714;2023-07-20T03:38:23;7.22;;;3.50;;
59571;SDS011;70118;45.638;11.714;2023-07-20T03:40:50;6.35;;;3.13;;
59571;SDS011;70118;45.638;11.714;2023-07-20T03:43:17;7.35;;;3.65;;
59571;SDS011;70118;45.638;11.714;2023-07-20T03:45:44;6.33;;;3.30;;
59571;SDS011;70118;45.638;11.714;2023-07-20T03:48:16;7.95;;;3.63;;
59571;SDS011;70118;45.638;11.714;2023-07-20T03:50:46;7.70;;;3.55;;
59571;SDS011;70118;45.638;11.714;2023-07-20T03:53:13;6.28;;;3.50;;
59571;SDS011;70118;45.638;11.714;2023-07-20T03:55:40;8.25;;;3.35;;
59571;SDS011;70118;45.638;11.714;2023-07-20T03:58:06;7.20;;;3.27;;
59571;SDS011;70118;45.638;11.714;2023-07-20T04:00:33;6.00;;;3.25;;
59571;SDS011;70118;45.638;11.714;2023-07-20T04:02:59;6.80;;;3.10;;
59571;SDS011;70118;45.638;11.714;2023-07-20T04:05:26;5.57;;;3.40;;
59571;SDS011;70118;45.638;11.714;2023-07-20T04:07:52;10.30;;;5.32;;
59571;SDS011;70118;45.638;11.714;2023-07-20T04:10:18;9.57;;;5.10;;
59571;SDS011;70118;45.638;11.714;2023-07-20T04:12:44;7.18;;;3.90;;
59571;SDS011;70118;45.638;11.714;2023-07-20T04:15:12;6.72;;;4.35;;
59571;SDS011;70118;45.638;11.714;2023-07-20T04:17:38;11.73;;;4.78;;
59571;SDS011;70118;45.638;11.714;2023-07-20T04:20:05;11.93;;;6.30;;
59571;SDS011;70118;45.638;11.714;2023-07-20T04:22:32;12.07;;;7.20;;
59571;SDS011;70118;45.638;11.714;2023-07-20T04:24:58;10.43;;;6.70;;
59571;SDS011;70118;45.638;11.714;2023-07-20T04:27:24;10.30;;;6.35;;
59571;SDS011;70118;45.638;11.714;2023-07-20T04:29:50;12.80;;;7.43;;
59571;SDS011;70118;45.638;11.714;2023-07-20T04:32:16;17.67;;;7.60;;
59571;SDS011;70118;45.638;11.714;2023-07-20T04:34:42;17.83;;;11.15;;
59571;SDS011;70118;45.638;11.714;2023-07-20T04:37:07;17.23;;;11.40;;
59571;SDS011;70118;45.638;11.714;2023-07-20T04:39:33;18.53;;;10.87;;
59571;SDS011;70118;45.638;11.714;2023-07-20T04:41:59;13.85;;;9.48;;
59571;SDS011;70118;45.638;11.714;2023-07-20T04:44:25;15.80;;;9.80;;
59571;SDS011;70118;45.638;11.714;2023-07-20T04:46:51;16.13;;;9.60;;
59571;SDS011;70118;45.638;11.714;2023-07-20T04:49:17;19.60;;;11.40;;
59571;SDS011;70118;45.638;11.714;2023-07-20T04:51:43;17.55;;;11.20;;
59571;SDS011;70118;45.638;11.714;2023-07-20T04:54:10;15.90;;;9.88;;
59571;SDS011;70118;45.638;11.714;2023-07-20T04:56:36;16.17;;;10.43;;
59571;SDS011;70118;45.638;11.714;2023-07-20T04:59:02;14.77;;;9.20;;
59571;SDS011;70118;45.638;11.714;2023-07-20T05:01:27;17.87;;;10.50;;
59571;SDS011;70118;45.638;11.714;2023-07-20T05:03:53;14.70;;;8.90;;
59571;SDS011;70118;45.638;11.714;2023-07-20T05:06:19;13.10;;;7.90;;
59571;SDS011;70118;45.638;11.714;2023-07-20T05:08:45;12.67;;;7.27;;
59571;SDS011;70118;45.638;11.714;2023-07-20T05:11:11;10.10;;;6.28;;
59571;SDS011;70118;45.638;11.714;2023-07-20T05:13:37;11.73;;;6.53;;
59571;SDS011;70118;45.638;11.714;2023-07-20T05:16:03;10.68;;;5.72;;
59571;SDS011;70118;45.638;11.714;2023-07-20T05:18:29;8.70;;;5.83;;
59571;SDS011;70118;45.638;11.714;2023-07-20T05:20:56;12.60;;;6.70;;
59571;SDS011;70118;45.638;11.714;2023-07-20T05:23:22;10.68;;;5.97;;
59571;SDS011;70118;45.638;11.714;2023-07-20T05:25:57;9.23;;;5.87;;
59571;SDS011;70118;45.638;11.714;2023-07-20T05:28:24;10.02;;;6.00;;
59571;SDS011;70118;45.638;11.714;2023-07-20T05:30:51;9.15;;;4.75;;
59571;SDS011;70118;45.638;11.714;2023-07-20T05:33:18;9.43;;;5.35;;
59571;SDS011;70118;45.638;11.714;2023-07-20T05:35:47;8.13;;;4.90;;
59571;SDS011;70118;45.638;11.714;2023-07-20T05:38:13;9.17;;;5.40;;
59571;SDS011;70118;45.638;11.714;2023-07-20T05:40:42;10.80;;;5.50;;
59571;SDS011;70118;45.638;11.714;2023-07-20T05:43:09;8.48;;;5.03;;
59571;SDS011;70118;45.638;11.714;2023-07-20T05:45:36;9.10;;;4.75;;
59571;SDS011;70118;45.638;11.714;2023-07-20T05:48:02;7.90;;;4.55;;
59571;SDS011;70118;45.638;11.714;2023-07-20T05:50:29;11.50;;;5.87;;
59571;SDS011;70118;45.638;11.714;2023-07-20T05:52:55;9.55;;;4.70;;
59571;SDS011;70118;45.638;11.714;2023-07-20T05:55:20;11.35;;;4.97;;
59571;SDS011;70118;45.638;11.714;2023-07-20T05:57:46;9.43;;;4.93;;
59571;SDS011;70118;45.638;11.714;2023-07-20T06:00:13;8.85;;;4.15;;
59571;SDS011;70118;45.638;11.714;2023-07-20T06:02:39;9.25;;;4.32;;
59571;SDS011;70118;45.638;11.714;2023-07-20T06:05:07;7.97;;;4.20;;
59571;SDS011;70118;45.638;11.714;2023-07-20T06:07:37;8.73;;;4.25;;
59571;SDS011;70118;45.638;11.714;2023-07-20T06:10:03;6.57;;;3.50;;
59571;SDS011;70118;45.638;11.714;2023-07-20T06:12:30;8.65;;;4.10;;
59571;SDS011;70118;45.638;11.714;2023-07-20T06:14:57;7.78;;;3.50;;
59571;SDS011;70118;45.638;11.714;2023-07-20T06:17:26;7.57;;;4.07;;
59571;SDS011;70118;45.638;11.714;2023-07-20T06:19:52;7.37;;;3.73;;
59571;SDS011;70118;45.638;11.714;2023-07-20T06:22:18;6.13;;;3.38;;
59571;SDS011;70118;45.638;11.714;2023-07-20T06:24:44;6.82;;;3.60;;
59571;SDS011;70118;45.638;11.714;2023-07-20T06:27:10;7.67;;;3.53;;
59571;SDS011;70118;45.638;11.714;2023-07-20T06:29:37;7.90;;;3.90;;
59571;SDS011;70118;45.638;11.714;2023-07-20T06:32:03;6.80;;;3.53;;
59571;SDS011;70118;45.638;11.714;2023-07-20T06:34:30;9.18;;;3.72;;
59571;SDS011;70118;45.638;11.714;2023-07-20T06:36:56;6.87;;;3.70;;
59571;SDS011;70118;45.638;11.714;2023-07-20T06:39:22;6.30;;;3.40;;
59571;SDS011;70118;45.638;11.714;2023-07-20T06:41:48;6.60;;;3.45;;
59571;SDS011;70118;45.638;11.714;2023-07-20T06:44:13;7.53;;;3.83;;
59571;SDS011;70118;45.638;11.714;2023-07-20T06:46:39;7.25;;;3.17;;
59571;SDS011;70118;45.638;11.714;2023-07-20T06:49:06;7.85;;;3.35;;
59571;SDS011;70118;45.638;11.714;2023-07-20T06:51:33;7.57;;;3.53;;
59571;SDS011;70118;45.638;11.714;2023-07-20T06:53:59;7.97;;;3.27;;
59571;SDS011;70118;45.638;11.714;2023-07-20T06:56:24;7.57;;;3.60;;
59571;SDS011;70118;45.638;11.714;2023-07-20T06:58:50;5.90;;;3.33;;
59571;SDS011;70118;45.638;11.714;2023-07-20T07:01:16;7.82;;;3.60;;
59571;SDS011;70118;45.638;11.714;2023-07-20T07:03:42;6.35;;;3.00;;
59571;SDS011;70118;45.638;11.714;2023-07-20T07:06:09;6.67;;;3.40;;
59571;SDS011;70118;45.638;11.714;2023-07-20T07:08:35;8.93;;;3.63;;
59571;SDS011;70118;45.638;11.714;2023-07-20T07:11:01;5.30;;;3.47;;
59571;SDS011;70118;45.638;11.714;2023-07-20T07:13:27;7.20;;;3.30;;
59571;SDS011;70118;45.638;11.714;2023-07-20T07:15:53;7.03;;;3.20;;
59571;SDS011;70118;45.638;11.714;2023-07-20T07:18:19;8.15;;;3.58;;
59571;SDS011;70118;45.638;11.714;2023-07-20T07:20:52;7.18;;;3.03;;
59571;SDS011;70118;45.638;11.714;2023-07-20T07:23:18;7.03;;;3.55;;
59571;SDS011;70118;45.638;11.714;2023-07-20T07:25:44;7.60;;;3.33;;
59571;SDS011;70118;45.638;11.714;2023-07-20T07:28:11;10.40;;;4.13;;
59571;SDS011;70118;45.638;11.714;2023-07-20T07:30:37;7.13;;;4.03;;
59571;SDS011;70118;45.638;11.714;2023-07-20T07:33:03;7.05;;;3.60;;
59571;SDS011;70118;45.638;11.714;2023-07-20T07:35:29;6.90;;;3.63;;
59571;SDS011;70118;45.638;11.714;2023-07-20T07:37:55;6.05;;;3.45;;
59571;SDS011;70118;45.638;11.714;2023-07-20T07:40:21;7.25;;;3.97;;
59571;SDS011;70118;45.638;11.714;2023-07-20T07:42:46;7.97;;;3.40;;
59571;SDS011;70118;45.638;11.714;2023-07-20T07:45:12;6.30;;;3.13;;
59571;SDS011;70118;45.638;11.714;2023-07-20T07:47:39;7.28;;;3.50;;
59571;SDS011;70118;45.638;11.714;2023-07-20T07:50:05;7.83;;;3.80;;
59571;SDS011;70118;45.638;11.714;2023-07-20T07:52:31;6.47;;;3.75;;
59571;SDS011;70118;45.638;11.714;2023-07-20T07:54:57;9.95;;;4.03;;
59571;SDS011;70118;45.638;11.714;2023-07-20T07:57:25;6.90;;;3.97;;
59571;SDS011;70118;45.638;11.714;2023-07-20T07:59:51;11.73;;;4.37;;
59571;SDS011;70118;45.638;11.714;2023-07-20T08:02:16;7.85;;;4.28;;
59571;SDS011;70118;45.638;11.714;2023-07-20T08:04:42;6.60;;;3.70;;
59571;SDS011;70118;45.638;11.714;2023-07-20T08:07:08;7.75;;;4.00;;
59571;SDS011;70118;45.638;11.714;2023-07-20T08:09:34;7.47;;;4.10;;
59571;SDS011;70118;45.638;11.714;2023-07-20T08:12:00;8.87;;;3.83;;
59571;SDS011;70118;45.638;11.714;2023-07-20T08:14:26;7.35;;;3.85;;
59571;SDS011;70118;45.638;11.714;2023-07-20T08:16:52;8.88;;;6.70;;
59571;SDS011;70118;45.638;11.714;2023-07-20T08:19:19;9.35;;;4.15;;
59571;SDS011;70118;45.638;11.714;2023-07-20T08:21:45;8.13;;;4.10;;
59571;SDS011;70118;45.638;11.714;2023-07-20T08:24:12;9.93;;;3.72;;
59571;SDS011;70118;45.638;11.714;2023-07-20T08:26:38;7.32;;;3.75;;
59571;SDS011;70118;45.638;11.714;2023-07-20T08:29:04;6.95;;;4.03;;
59571;SDS011;70118;45.638;11.714;2023-07-20T08:31:30;6.70;;;3.60;;
59571;SDS011;70118;45.638;11.714;2023-07-20T08:33:56;6.68;;;3.67;;
59571;SDS011;70118;45.638;11.714;2023-07-20T08:36:22;9.05;;;3.80;;
59571;SDS011;70118;45.638;11.714;2023-07-20T08:38:49;7.10;;;3.50;;
59571;SDS011;70118;45.638;11.714;2023-07-20T08:41:17;6.37;;;3.30;;
59571;SDS011;70118;45.638;11.714;2023-07-20T08:43:49;8.65;;;3.58;;
59571;SDS011;70118;45.638;11.714;2023-07-20T08:46:36;9.63;;;4.00;;
59571;SDS011;70118;45.638;11.714;2023-07-20T08:49:04;6.35;;;3.60;;
59571;SDS011;70118;45.638;11.714;2023-07-20T08:51:31;7.07;;;3.58;;
59571;SDS011;70118;45.638;11.714;2023-07-20T08:53:59;7.50;;;3.60;;
59571;SDS011;70118;45.638;11.714;2023-07-20T08:56:34;7.18;;;3.03;;
59571;SDS011;70118;45.638;11.714;2023-07-20T08:59:00;6.60;;;3.38;;
59571;SDS011;70118;45.638;11.714;2023-07-20T09:01:26;6.00;;;3.40;;
59571;SDS011;70118;45.638;11.714;2023-07-20T09:03:55;7.22;;;3.70;;
59571;SDS011;70118;45.638;11.714;2023-07-20T09:06:21;9.20;;;3.20;;
59571;SDS011;70118;45.638;11.714;2023-07-20T09:08:47;5.68;;;3.17;;
59571;SDS011;70118;45.638;11.714;2023-07-20T09:11:14;7.10;;;3.20;;
59571;SDS011;70118;45.638;11.714;2023-07-20T09:13:41;5.88;;;3.38;;
59571;SDS011;70118;45.638;11.714;2023-07-20T09:16:08;7.00;;;3.07;;
59571;SDS011;70118;45.638;11.714;2023-07-20T09:18:39;6.65;;;3.28;;
59571;SDS011;70118;45.638;11.714;2023-07-20T09:21:05;5.80;;;3.22;;
59571;SDS011;70118;45.638;11.714;2023-07-20T09:23:38;6.60;;;2.90;;
59571;SDS011;70118;45.638;11.714;2023-07-20T09:26:10;6.00;;;3.10;;
59571;SDS011;70118;45.638;11.714;2023-07-20T09:28:58;6.80;;;3.37;;
59571;SDS011;70118;45.638;11.714;2023-07-20T09:31:23;8.02;;;3.00;;
59571;SDS011;70118;45.638;11.714;2023-07-20T09:33:53;6.88;;;3.40;;
59571;SDS011;70118;45.638;11.714;2023-07-20T09:36:38;6.20;;;3.20;;
59571;SDS011;70118;45.638;11.714;2023-07-20T09:39:04;5.57;;;2.88;;
59571;SDS011;70118;45.638;11.714;2023-07-20T09:41:39;6.63;;;2.80;;
59571;SDS011;70118;45.638;11.714;2023-07-20T09:44:08;5.75;;;3.08;;
59571;SDS011;70118;45.638;11.714;2023-07-20T09:46:47;5.85;;;2.60;;
59571;SDS011;70118;45.638;11.714;2023-07-20T09:49:17;6.72;;;2.80;;
59571;SDS011;70118;45.638;11.714;2023-07-20T09:51:44;6.57;;;2.97;;
59571;SDS011;70118;45.638;11.714;2023-07-20T09:54:11;5.43;;;3.10;;
59571;SDS011;70118;45.638;11.714;2023-07-20T09:56:41;6.47;;;3.00;;
59571;SDS011;70118;45.638;11.714;2023-07-20T09:59:10;6.15;;;3.28;;
59571;SDS011;70118;45.638;11.714;2023-07-20T10:01:36;6.22;;;3.25;;
59571;SDS011;70118;45.638;11.714;2023-07-20T10:04:07;5.35;;;2.90;;
59571;SDS011;70118;45.638;11.714;2023-07-20T10:06:36;4.97;;;2.73;;
59571;SDS011;70118;45.638;11.714;2023-07-20T10:09:08;7.22;;;2.70;;
59571;SDS011;70118;45.638;11.714;2023-07-20T10:11:38;5.18;;;2.65;;
59571;SDS011;70118;45.638;11.714;2023-07-20T10:14:08;6.10;;;2.92;;
59571;SDS011;70118;45.638;11.714;2023-07-20T10:16:39;6.90;;;2.75;;
59571;SDS011;70118;45.638;11.714;2023-07-20T10:19:27;5.50;;;2.77;;
59571;SDS011;70118;45.638;11.714;2023-07-20T10:22:18;7.97;;;2.95;;
59571;SDS011;70118;45.638;11.714;2023-07-20T10:24:50;5.40;;;2.83;;
59571;SDS011;70118;45.638;11.714;2023-07-20T10:27:22;5.05;;;2.67;;
59571;SDS011;70118;45.638;11.714;2023-07-20T10:29:57;6.03;;;2.60;;
59571;SDS011;70118;45.638;11.714;2023-07-20T10:32:24;6.67;;;3.10;;
59571;SDS011;70118;45.638;11.714;2023-07-20T10:34:51;5.45;;;2.67;;
59571;SDS011;70118;45.638;11.714;2023-07-20T10:40:23;5.32;;;2.83;;
59571;SDS011;70118;45.638;11.714;2023-07-20T10:43:08;6.00;;;2.60;;
59571;SDS011;70118;45.638;11.714;2023-07-20T10:51:09;7.63;;;2.88;;
59571;SDS011;70118;45.638;11.714;2023-07-20T10:53:51;5.28;;;2.30;;
59571;SDS011;70118;45.638;11.714;2023-07-20T10:56:27;5.43;;;2.80;;
59571;SDS011;70118;45.638;11.714;2023-07-20T10:59:00;5.60;;;2.30;;
59571;SDS011;70118;45.638;11.714;2023-07-20T11:01:43;7.15;;;2.67;;
59571;SDS011;70118;45.638;11.714;2023-07-20T11:04:10;5.97;;;2.67;;
59571;SDS011;70118;45.638;11.714;2023-07-20T11:06:36;5.90;;;2.57;;
59571;SDS011;70118;45.638;11.714;2023-07-20T11:09:04;4.73;;;2.83;;
59571;SDS011;70118;45.638;11.714;2023-07-20T11:11:36;5.13;;;2.58;;
59571;SDS011;70118;45.638;11.714;2023-07-20T11:14:10;4.80;;;2.40;;
59571;SDS011;70118;45.638;11.714;2023-07-20T11:16:46;5.93;;;2.75;;
59571;SDS011;70118;45.638;11.714;2023-07-20T11:19:17;5.60;;;2.60;;
59571;SDS011;70118;45.638;11.714;2023-07-20T11:21:45;4.90;;;2.53;;
59571;SDS011;70118;45.638;11.714;2023-07-20T11:24:12;4.93;;;2.50;;
59571;SDS011;70118;45.638;11.714;2023-07-20T11:26:42;4.50;;;2.35;;
59571;SDS011;70118;45.638;11.714;2023-07-20T11:29:08;4.47;;;2.25;;
59571;SDS011;70118;45.638;11.714;2023-07-20T11:31:35;5.35;;;2.38;;
59571;SDS011;70118;45.638;11.714;2023-07-20T11:34:02;4.50;;;2.03;;
59571;SDS011;70118;45.638;11.714;2023-07-20T11:36:28;5.55;;;2.28;;
59571;SDS011;70118;45.638;11.714;2023-07-20T11:38:54;6.28;;;2.20;;
59571;SDS011;70118;45.638;11.714;2023-07-20T11:41:20;5.03;;;2.10;;
59571;SDS011;70118;45.638;11.714;2023-07-20T11:43:46;4.60;;;2.17;;
59571;SDS011;70118;45.638;11.714;2023-07-20T11:46:13;4.75;;;1.98;;
59571;SDS011;70118;45.638;11.714;2023-07-20T11:48:39;4.93;;;2.05;;
59571;SDS011;70118;45.638;11.714;2023-07-20T11:51:05;6.05;;;2.35;;
59571;SDS011;70118;45.638;11.714;2023-07-20T11:53:31;5.30;;;2.13;;
59571;SDS011;70118;45.638;11.714;2023-07-20T11:55:58;5.13;;;2.03;;
59571;SDS011;70118;45.638;11.714;2023-07-20T11:58:24;5.22;;;2.30;;
59571;SDS011;70118;45.638;11.714;2023-07-20T12:00:53;6.10;;;2.10;;
59571;SDS011;70118;45.638;11.714;2023-07-20T12:03:20;5.90;;;2.00;;
59571;SDS011;70118;45.638;11.714;2023-07-20T12:05:47;4.60;;;1.70;;
59571;SDS011;70118;45.638;11.714;2023-07-20T12:08:15;4.70;;;2.00;;
59571;SDS011;70118;45.638;11.714;2023-07-20T12:10:41;4.38;;;2.10;;
59571;SDS011;70118;45.638;11.714;2023-07-20T12:13:09;4.55;;;2.10;;
59571;SDS011;70118;45.638;11.714;2023-07-20T12:15:39;7.60;;;2.03;;
59571;SDS011;70118;45.638;11.714;2023-07-20T12:18:05;5.10;;;2.00;;
59571;SDS011;70118;45.638;11.714;2023-07-20T12:20:33;5.80;;;2.10;;
59571;SDS011;70118;45.638;11.714;2023-07-20T12:23:03;6.53;;;1.83;;
59571;SDS011;70118;45.638;11.714;2023-07-20T12:25:36;5.03;;;1.98;;
59571;SDS011;70118;45.638;11.714;2023-07-20T12:28:22;5.30;;;1.92;;
59571;SDS011;70118;45.638;11.714;2023-07-20T12:30:48;5.73;;;2.00;;
59571;SDS011;70118;45.638;11.714;2023-07-20T12:33:21;4.70;;;2.00;;
59571;SDS011;70118;45.638;11.714;2023-07-20T12:35:48;4.45;;;2.00;;
59571;SDS011;70118;45.638;11.714;2023-07-20T12:38:21;5.15;;;2.20;;
59571;SDS011;70118;45.638;11.714;2023-07-20T12:40:48;4.90;;;2.03;;
59571;SDS011;70118;45.638;11.714;2023-07-20T12:43:14;4.47;;;2.17;;
59571;SDS011;70118;45.638;11.714;2023-07-20T12:45:40;5.13;;;2.40;;
59571;SDS011;70118;45.638;11.714;2023-07-20T12:48:07;5.47;;;2.03;;
59571;SDS011;70118;45.638;11.714;2023-07-20T12:50:33;4.95;;;1.90;;
59571;SDS011;70118;45.638;11.714;2023-07-20T12:53:00;5.57;;;2.10;;
59571;SDS011;70118;45.638;11.714;2023-07-20T12:55:29;5.40;;;2.08;;
59571;SDS011;70118;45.638;11.714;2023-07-20T12:57:55;4.32;;;1.73;;
59571;SDS011;70118;45.638;11.714;2023-07-20T13:00:21;4.88;;;1.88;;
59571;SDS011;70118;45.638;11.714;2023-07-20T13:02:48;5.85;;;2.00;;
59571;SDS011;70118;45.638;11.714;2023-07-20T13:05:15;4.67;;;1.90;;
59571;SDS011;70118;45.638;11.714;2023-07-20T13:07:42;5.15;;;2.10;;
59571;SDS011;70118;45.638;11.714;2023-07-20T13:10:09;5.32;;;2.20;;
59571;SDS011;70118;45.638;11.714;2023-07-20T13:12:36;4.30;;;1.98;;
59571;SDS011;70118;45.638;11.714;2023-07-20T13:15:04;4.47;;;1.88;;
59571;SDS011;70118;45.638;11.714;2023-07-20T13:17:32;4.47;;;1.80;;
59571;SDS011;70118;45.638;11.714;2023-07-20T13:19:58;5.30;;;1.98;;
59571;SDS011;70118;45.638;11.714;2023-07-20T13:22:24;4.15;;;1.92;;
59571;SDS011;70118;45.638;11.714;2023-07-20T13:24:52;5.75;;;2.00;;
59571;SDS011;70118;45.638;11.714;2023-07-20T13:27:19;6.28;;;2.00;;
59571;SDS011;70118;45.638;11.714;2023-07-20T13:29:45;4.50;;;1.80;;
59571;SDS011;70118;45.638;11.714;2023-07-20T13:32:15;4.65;;;2.10;;
59571;SDS011;70118;45.638;11.714;2023-07-20T13:34:41;4.78;;;2.10;;
59571;SDS011;70118;45.638;11.714;2023-07-20T13:37:07;4.75;;;1.90;;
59571;SDS011;70118;45.638;11.714;2023-07-20T13:39:34;5.95;;;2.35;;
59571;SDS011;70118;45.638;11.714;2023-07-20T13:42:00;4.87;;;2.10;;
59571;SDS011;70118;45.638;11.714;2023-07-20T13:44:30;4.43;;;1.90;;
59571;SDS011;70118;45.638;11.714;2023-07-20T13:46:57;5.43;;;1.77;;
59571;SDS011;70118;45.638;11.714;2023-07-20T13:49:23;4.60;;;2.17;;
59571;SDS011;70118;45.638;11.714;2023-07-20T13:51:50;5.77;;;2.17;;
59571;SDS011;70118;45.638;11.714;2023-07-20T13:54:16;4.68;;;2.00;;
59571;SDS011;70118;45.638;11.714;2023-07-20T13:56:42;5.28;;;1.98;;
59571;SDS011;70118;45.638;11.714;2023-07-20T13:59:08;5.78;;;1.90;;
59571;SDS011;70118;45.638;11.714;2023-07-20T14:01:34;5.10;;;2.10;;
59571;SDS011;70118;45.638;11.714;2023-07-20T14:04:00;4.43;;;1.70;;
59571;SDS011;70118;45.638;11.714;2023-07-20T14:06:31;5.82;;;1.85;;
59571;SDS011;70118;45.638;11.714;2023-07-20T14:08:57;5.40;;;1.80;;
59571;SDS011;70118;45.638;11.714;2023-07-20T14:11:24;5.47;;;2.10;;
59571;SDS011;70118;45.638;11.714;2023-07-20T14:13:51;5.40;;;2.00;;
59571;SDS011;70118;45.638;11.714;2023-07-20T14:16:20;6.68;;;2.38;;
59571;SDS011;70118;45.638;11.714;2023-07-20T14:18:47;6.35;;;2.13;;
59571;SDS011;70118;45.638;11.714;2023-07-20T14:21:14;6.85;;;1.90;;
59571;SDS011;70118;45.638;11.714;2023-07-20T14:23:44;5.18;;;2.17;;
59571;SDS011;70118;45.638;11.714;2023-07-20T14:26:14;5.80;;;2.30;;
59571;SDS011;70118;45.638;11.714;2023-07-20T14:28:41;6.22;;;2.55;;
59571;SDS011;70118;45.638;11.714;2023-07-20T14:31:07;4.43;;;1.83;;
59571;SDS011;70118;45.638;11.714;2023-07-20T14:33:33;5.20;;;1.90;;
59571;SDS011;70118;45.638;11.714;2023-07-20T14:35:59;4.13;;;1.70;;
59571;SDS011;70118;45.638;11.714;2023-07-20T14:38:27;5.47;;;2.23;;
59571;SDS011;70118;45.638;11.714;2023-07-20T14:40:56;6.93;;;2.20;;
59571;SDS011;70118;45.638;11.714;2023-07-20T14:43:22;4.72;;;2.00;;
59571;SDS011;70118;45.638;11.714;2023-07-20T14:45:48;5.25;;;1.90;;
59571;SDS011;70118;45.638;11.714;2023-07-20T14:48:14;4.67;;;1.60;;
59571;SDS011;70118;45.638;11.714;2023-07-20T14:50:40;5.07;;;2.10;;
59571;SDS011;70118;45.638;11.714;2023-07-20T14:53:06;6.00;;;2.10;;